createdAt,value
2019-03-20T00:02:02.377Z,102346.95
2019-03-20T00:04:29.078Z,102337.56
2019-03-20T00:06:55.770Z,102337.19
2019-03-20T00:09:22.436Z,102335.78
2019-03-20T00:11:49.124Z,102339.64
2019-03-20T00:14:15.786Z,102345.31
2019-03-20T00:16:42.867Z,102341.75
2019-03-20T00:19:18.943Z,102337.90
2019-03-20T00:21:45.638Z,102339.08
2019-03-20T00:24:12.500Z,102341.72
2019-03-20T00:26:39.207Z,102334.95
2019-03-20T00:29:05.888Z,102334.59
2019-03-20T00:31:32.555Z,102337.60
2019-03-20T00:33:59.515Z,102337.26
2019-03-20T00:36:26.374Z,102330.83
2019-03-20T00:38:53.045Z,102320.02
2019-03-20T00:41:19.943Z,102318.77
2019-03-20T00:43:46.606Z,102314.86
2019-03-20T00:46:14.869Z,102323.02
2019-03-20T00:48:41.586Z,102324.98
2019-03-20T00:51:09.353Z,102329.94
2019-03-20T00:53:36.120Z,102326.93
2019-03-20T00:56:03.214Z,102322.48
2019-03-20T00:58:29.895Z,102322.28
2019-03-20T01:00:56.682Z,102316.07
2019-03-20T01:03:23.663Z,102318.73
2019-03-20T01:05:50.340Z,102315.03
2019-03-20T01:08:17.013Z,102312.55
2019-03-20T01:10:43.721Z,102316.97
2019-03-20T01:13:10.480Z,102312.70
2019-03-20T01:15:37.196Z,102318.34
2019-03-20T01:18:03.993Z,102310.52
2019-03-20T01:20:30.674Z,102313.00
2019-03-20T01:22:57.716Z,102312.13
2019-03-20T01:25:24.837Z,102310.69
2019-03-20T01:27:51.609Z,102306.55
2019-03-20T01:30:34.711Z,102307.97
2019-03-20T01:33:03.148Z,102305.66
2019-03-20T01:35:30.124Z,102308.95
2019-03-20T01:37:56.798Z,102309.78
2019-03-20T01:40:23.557Z,102306.96
2019-03-20T01:42:50.241Z,102299.55
2019-03-20T01:45:17.079Z,102304.11
2019-03-20T01:47:44.041Z,102302.19
2019-03-20T01:50:10.683Z,102304.67
2019-03-20T01:52:37.355Z,102304.85
2019-03-20T01:55:04.170Z,102300.61
2019-03-20T01:57:30.830Z,102305.91
2019-03-20T01:59:57.506Z,102298.47
2019-03-20T02:02:24.368Z,102301.98
2019-03-20T02:04:51.307Z,102303.59
2019-03-20T02:07:17.980Z,102295.11
2019-03-20T02:09:44.889Z,102288.34
2019-03-20T02:12:11.538Z,102288.70
2019-03-20T02:14:38.211Z,102284.66
2019-03-20T02:17:04.881Z,102283.63
2019-03-20T02:19:31.822Z,102285.37
2019-03-20T02:21:58.595Z,102273.87
2019-03-20T02:24:43.181Z,102273.37
2019-03-20T02:27:09.856Z,102280.45
2019-03-20T02:29:36.641Z,102274.11
2019-03-20T02:32:03.531Z,102265.58
2019-03-20T02:34:30.438Z,102272.84
2019-03-20T02:36:57.124Z,102261.34
2019-03-20T02:39:23.814Z,102265.41
2019-03-20T02:41:50.594Z,102262.57
2019-03-20T02:44:17.266Z,102269.13
2019-03-20T02:46:44.075Z,102261.34
2019-03-20T02:49:10.757Z,102273.55
2019-03-20T02:51:37.440Z,102273.37
2019-03-20T02:54:04.241Z,102270.02
2019-03-20T02:56:31.000Z,102268.78
2019-03-20T02:58:57.681Z,102271.26
2019-03-20T03:01:24.368Z,102275.50
2019-03-20T03:03:51.033Z,102277.28
2019-03-20T03:06:17.699Z,102269.84
2019-03-20T03:08:44.399Z,102266.48
2019-03-20T03:11:11.080Z,102262.08
2019-03-20T03:13:37.730Z,102251.42
2019-03-20T03:16:04.408Z,102253.53
2019-03-20T03:18:31.175Z,102254.44
2019-03-20T03:20:57.845Z,102250.56
2019-03-20T03:23:25.471Z,102250.02
2019-03-20T03:25:52.172Z,102251.26
2019-03-20T03:28:18.841Z,102249.14
2019-03-20T03:30:45.649Z,102252.49
2019-03-20T03:33:12.404Z,102248.09
2019-03-20T03:35:39.223Z,102250.06
2019-03-20T03:38:06.000Z,102251.30
2019-03-20T03:40:32.833Z,102249.73
2019-03-20T03:42:59.746Z,102259.29
2019-03-20T03:45:26.437Z,102262.85
2019-03-20T03:47:56.496Z,102262.28
2019-03-20T03:50:23.298Z,102254.86
2019-03-20T03:52:49.988Z,102258.58
2019-03-20T03:55:16.673Z,102247.97
2019-03-20T03:57:43.409Z,102249.53
2019-03-20T04:00:11.608Z,102235.73
2019-03-20T04:02:38.299Z,102240.90
2019-03-20T04:05:05.112Z,102241.06
2019-03-20T04:07:31.958Z,102250.09
2019-03-20T04:09:58.635Z,102252.02
2019-03-20T04:12:25.474Z,102261.62
2019-03-20T04:14:52.281Z,102256.97
2019-03-20T04:17:20.833Z,102254.70
2019-03-20T04:19:47.507Z,102248.50
2019-03-20T04:22:14.229Z,102253.98
2019-03-20T04:24:40.894Z,102255.74
2019-03-20T04:27:07.762Z,102257.19
2019-03-20T04:29:34.550Z,102263.55
2019-03-20T04:32:01.266Z,102269.42
2019-03-20T04:34:27.934Z,102262.67
2019-03-20T04:36:54.719Z,102262.67
2019-03-20T04:39:21.450Z,102254.55
2019-03-20T04:41:48.086Z,102257.71
2019-03-20T04:44:14.769Z,102265.16
2019-03-20T04:46:41.653Z,102269.24
2019-03-20T04:49:08.311Z,102274.04
2019-03-20T04:51:35.090Z,102267.64
2019-03-20T04:54:01.798Z,102270.67
2019-03-20T04:56:28.465Z,102265.16
2019-03-20T04:58:55.128Z,102258.62
2019-03-20T05:01:21.811Z,102256.31
2019-03-20T05:03:48.499Z,102251.34
2019-03-20T05:06:15.261Z,102256.67
2019-03-20T05:08:42.026Z,102260.75
2019-03-20T05:11:09.047Z,102252.23
2019-03-20T05:13:35.709Z,102249.75
2019-03-20T05:16:02.477Z,102259.67
2019-03-20T05:18:29.359Z,102263.75
2019-03-20T05:20:56.045Z,102264.99
2019-03-20T05:23:22.736Z,102266.76
2019-03-20T05:25:49.753Z,102263.59
2019-03-20T05:28:16.417Z,102267.64
2019-03-20T05:30:43.195Z,102262.16
2019-03-20T05:33:10.314Z,102267.31
2019-03-20T05:35:37.009Z,102272.44
2019-03-20T05:38:03.793Z,102269.24
2019-03-20T05:40:30.503Z,102271.56
2019-03-20T05:42:57.157Z,102268.55
2019-03-20T05:45:23.930Z,102271.92
2019-03-20T05:47:50.607Z,102272.28
2019-03-20T05:50:17.555Z,102275.09
2019-03-20T05:52:44.335Z,102271.72
2019-03-20T05:55:11.317Z,102267.64
2019-03-20T05:57:37.984Z,102271.92
2019-03-20T06:00:07.102Z,102278.29
2019-03-20T06:02:33.786Z,102275.09
2019-03-20T06:05:00.468Z,102275.28
2019-03-20T06:07:27.176Z,102275.28
2019-03-20T06:09:53.843Z,102272.44
2019-03-20T06:12:20.515Z,102277.41
2019-03-20T06:14:47.220Z,102278.84
2019-03-20T06:17:13.912Z,102286.28
2019-03-20T06:19:40.683Z,102285.38
2019-03-20T06:22:07.502Z,102281.48
2019-03-20T06:24:34.264Z,102282.55
2019-03-20T06:27:01.046Z,102282.70
2019-03-20T06:29:28.662Z,102288.22
2019-03-20T06:31:55.330Z,102280.91
2019-03-20T06:34:22.006Z,102292.59
2019-03-20T06:36:48.672Z,102295.08
2019-03-20T06:39:15.396Z,102295.94
2019-03-20T06:41:42.075Z,102296.63
2019-03-20T06:44:08.754Z,102303.86
2019-03-20T06:46:35.583Z,102297.80
2019-03-20T06:49:02.266Z,102304.84
2019-03-20T06:51:28.946Z,102307.26
2019-03-20T06:53:55.743Z,102309.00
2019-03-20T06:56:22.412Z,102243.91
2019-03-20T06:59:11.940Z,102309.36
2019-03-20T07:01:38.723Z,102310.61
2019-03-20T07:04:13.146Z,102319.95
2019-03-20T07:06:53.237Z,102304.77
2019-03-20T07:09:24.739Z,102305.75
2019-03-20T07:11:51.434Z,102311.73
2019-03-20T07:14:18.259Z,102312.67
2019-03-20T07:16:45.049Z,102316.41
2019-03-20T07:19:11.820Z,102320.97
2019-03-20T07:21:38.502Z,102319.69
2019-03-20T07:24:05.333Z,102317.31
2019-03-20T07:26:32.105Z,102323.98
2019-03-20T07:28:58.744Z,102329.19
2019-03-20T07:31:25.629Z,102320.94
2019-03-20T07:33:52.718Z,102319.70
2019-03-20T07:36:19.505Z,102314.34
2019-03-20T07:38:46.334Z,102324.78
2019-03-20T07:41:13.430Z,102323.28
2019-03-20T07:43:40.101Z,102313.19
2019-03-20T07:46:08.038Z,102311.77
2019-03-20T07:48:34.782Z,102321.34
2019-03-20T07:51:02.014Z,102329.29
2019-03-20T07:53:29.083Z,102327.53
2019-03-20T07:55:56.569Z,102329.44
2019-03-20T07:58:23.367Z,102330.12
2019-03-20T08:00:50.044Z,102332.20
2019-03-20T08:03:16.815Z,102330.11
2019-03-20T08:05:43.662Z,102340.51
2019-03-20T08:08:10.330Z,102332.80
2019-03-20T08:10:37.199Z,102336.20
2019-03-20T08:13:04.214Z,102332.14
2019-03-20T08:15:32.011Z,102331.50
2019-03-20T08:17:58.709Z,102332.52
2019-03-20T08:20:25.602Z,102335.42
2019-03-20T08:22:52.291Z,102338.89
2019-03-20T08:25:19.075Z,102335.15
2019-03-20T08:27:45.743Z,102335.56
2019-03-20T08:30:13.919Z,102344.22
2019-03-20T08:32:40.987Z,102344.10
2019-03-20T08:35:07.887Z,102343.47
2019-03-20T08:37:34.653Z,102348.56
2019-03-20T08:40:01.442Z,102338.49
2019-03-20T08:42:28.198Z,102347.33
2019-03-20T08:44:56.455Z,102352.95
2019-03-20T08:47:23.233Z,102352.42
2019-03-20T08:49:49.905Z,102345.16
2019-03-20T08:52:16.610Z,102349.05
2019-03-20T08:54:43.282Z,102350.19
2019-03-20T08:57:09.959Z,102351.01
2019-03-20T08:59:36.879Z,102356.13
2019-03-20T09:02:03.659Z,102354.67
2019-03-20T09:04:30.323Z,102355.63
2019-03-20T09:06:57.025Z,102358.53
2019-03-20T09:09:23.690Z,102357.47
2019-03-20T09:11:50.381Z,102357.12
2019-03-20T09:14:17.059Z,102356.70
2019-03-20T09:16:43.896Z,102359.02
2019-03-20T09:19:10.582Z,102345.63
2019-03-20T09:21:37.253Z,102353.50
2019-03-20T09:24:04.148Z,102355.95
2019-03-20T09:26:30.832Z,102360.75
2019-03-20T09:28:57.520Z,102360.45
2019-03-20T09:31:25.259Z,102360.12
2019-03-20T09:33:52.269Z,102360.05
2019-03-20T09:36:19.124Z,102360.32
2019-03-20T09:38:45.790Z,102366.38
2019-03-20T09:41:12.694Z,102364.07
2019-03-20T09:43:39.399Z,102367.83
2019-03-20T09:46:06.083Z,102359.37
2019-03-20T09:48:32.776Z,102369.37
2019-03-20T09:50:59.434Z,102369.82
2019-03-20T09:53:27.201Z,102373.67
2019-03-20T09:55:54.032Z,102374.98
2019-03-20T09:58:20.893Z,102371.90
2019-03-20T10:00:47.642Z,102381.41
2019-03-20T10:03:14.316Z,102378.74
2019-03-20T10:05:41.082Z,102378.84
2019-03-20T10:08:07.899Z,102381.56
2019-03-20T10:10:34.666Z,102380.38
2019-03-20T10:13:01.341Z,102368.38
2019-03-20T10:15:28.131Z,102367.84
2019-03-20T10:17:55.117Z,102366.26
2019-03-20T10:20:22.219Z,102370.59
2019-03-20T10:22:49.098Z,102365.14
2019-03-20T10:25:15.968Z,102360.48
2019-03-20T10:27:42.932Z,102368.73
2019-03-20T10:30:12.981Z,102364.66
2019-03-20T10:32:39.637Z,102368.33
2019-03-20T10:35:07.313Z,102378.53
2019-03-20T10:37:34.016Z,102375.59
2019-03-20T10:40:00.727Z,102377.72
2019-03-20T10:42:27.450Z,102382.59
2019-03-20T10:44:54.113Z,102393.87
2019-03-20T10:47:20.777Z,102387.02
2019-03-20T10:49:48.783Z,102395.46
2019-03-20T10:52:15.450Z,102402.98
2019-03-20T10:54:42.219Z,102407.65
2019-03-20T10:57:09.025Z,102406.39
2019-03-20T10:59:36.814Z,102405.04
2019-03-20T11:02:03.598Z,102405.33
2019-03-20T11:04:31.380Z,102403.94
2019-03-20T11:06:58.091Z,102405.94
2019-03-20T11:09:24.797Z,102408.66
2019-03-20T11:11:51.455Z,102411.01
2019-03-20T11:14:18.164Z,102408.80
2019-03-20T11:16:45.069Z,102413.89
2019-03-20T11:19:11.730Z,102412.48
2019-03-20T11:21:38.404Z,102418.81
2019-03-20T11:24:05.197Z,102345.45
2019-03-20T11:26:31.914Z,102415.44
2019-03-20T11:28:58.641Z,102415.20
2019-03-20T11:31:25.344Z,102422.42
2019-03-20T11:33:52.027Z,102423.89
2019-03-20T11:36:18.829Z,102420.47
2019-03-20T11:38:45.605Z,102421.52
2019-03-20T11:41:12.434Z,102416.72
2019-03-20T11:43:39.089Z,102418.63
2019-03-20T11:46:06.978Z,102423.19
2019-03-20T11:48:33.671Z,102432.26
2019-03-20T11:51:01.353Z,102431.97
2019-03-20T11:53:28.127Z,102431.54
2019-03-20T11:55:54.869Z,102423.69
2019-03-20T11:58:21.638Z,102434.09
2019-03-20T12:00:48.420Z,102432.63
2019-03-20T12:03:16.402Z,102431.88
2019-03-20T12:05:43.065Z,102434.17
2019-03-20T12:08:11.639Z,102434.67
2019-03-20T12:10:38.342Z,102438.73
2019-03-20T12:13:05.122Z,102443.03
2019-03-20T12:15:31.874Z,102431.75
2019-03-20T12:17:58.888Z,102444.66
2019-03-20T12:20:25.851Z,102442.28
2019-03-20T12:22:52.820Z,102438.39
2019-03-20T12:25:22.045Z,102438.10
2019-03-20T12:27:48.805Z,102422.64
2019-03-20T12:30:17.901Z,102423.65
2019-03-20T12:32:44.590Z,102421.09
2019-03-20T12:35:12.083Z,102414.08
2019-03-20T12:37:38.783Z,102411.73
2019-03-20T12:40:09.145Z,102404.27
2019-03-20T12:42:35.827Z,102403.17
2019-03-20T12:45:04.246Z,102406.43
2019-03-20T12:47:31.023Z,102398.91
2019-03-20T12:49:57.709Z,102392.48
2019-03-20T12:52:24.519Z,102390.64
2019-03-20T12:54:51.193Z,102388.88
2019-03-20T12:57:18.095Z,102387.71
2019-03-20T12:59:44.778Z,102391.39
2019-03-20T13:02:11.748Z,102398.66
2019-03-20T13:04:38.441Z,102390.77
2019-03-20T13:07:05.152Z,102395.07
2019-03-20T13:09:31.827Z,102397.03
2019-03-20T13:11:58.601Z,102405.64
2019-03-20T13:14:25.300Z,102407.27
2019-03-20T13:16:52.117Z,102404.77
2019-03-20T13:19:18.864Z,102390.64
2019-03-20T13:21:47.606Z,102409.19
2019-03-20T13:24:14.146Z,102402.34
2019-03-20T13:26:40.929Z,102400.38
2019-03-20T13:29:08.702Z,102397.87
2019-03-20T13:31:35.393Z,102390.05
2019-03-20T13:34:02.079Z,102387.30
2019-03-20T13:36:28.746Z,102387.84
2019-03-20T13:38:56.563Z,102380.82
2019-03-20T13:41:23.444Z,102371.09
2019-03-20T13:43:50.258Z,102375.39
2019-03-20T13:46:16.954Z,102381.03
2019-03-20T13:48:43.733Z,102385.16
2019-03-20T13:51:10.552Z,102381.57
2019-03-20T13:53:37.359Z,102374.39
2019-03-20T13:56:04.119Z,102373.44
2019-03-20T13:58:30.798Z,102381.03
2019-03-20T14:00:57.502Z,102391.19
2019-03-20T14:03:24.178Z,102393.40
2019-03-20T14:06:06.555Z,102383.95
2019-03-20T14:08:33.227Z,102390.89
2019-03-20T14:11:00.127Z,102396.07
2019-03-20T14:13:26.890Z,102396.07
2019-03-20T14:15:53.679Z,102388.84
2019-03-20T14:18:20.370Z,102388.18
2019-03-20T14:20:47.034Z,102385.28
2019-03-20T14:23:13.837Z,102393.59
2019-03-20T14:25:40.518Z,102401.21
2019-03-20T14:28:07.435Z,102394.36
2019-03-20T14:30:34.309Z,102390.02
2019-03-20T14:33:01.081Z,102385.59
2019-03-20T14:35:28.749Z,102394.66
2019-03-20T14:37:55.642Z,102388.09
2019-03-20T14:40:34.861Z,102396.20
2019-03-20T14:42:53.283Z,102390.97
2019-03-20T14:45:20.113Z,102386.56
2019-03-20T14:47:47.031Z,102390.30
2019-03-20T14:50:15.233Z,102385.42
2019-03-20T14:52:42.161Z,102385.67
2019-03-20T14:55:10.074Z,102390.39
2019-03-20T14:57:36.859Z,102393.19
2019-03-20T15:00:04.777Z,102398.12
2019-03-20T15:02:31.770Z,102396.20
2019-03-20T15:04:58.498Z,102399.30
2019-03-20T15:07:25.201Z,102400.20
2019-03-20T15:09:51.971Z,102405.27
2019-03-20T15:12:18.651Z,102402.63
2019-03-20T15:14:45.462Z,102401.58
2019-03-20T15:17:12.140Z,102404.59
2019-03-20T15:19:39.149Z,102404.67
2019-03-20T15:22:05.822Z,102400.75
2019-03-20T15:24:32.500Z,102404.34
2019-03-20T15:26:59.286Z,102397.77
2019-03-20T15:29:25.976Z,102401.16
2019-03-20T15:31:52.914Z,102403.95
2019-03-20T15:34:19.950Z,102345.11
2019-03-20T15:36:47.161Z,102399.11
2019-03-20T15:39:13.880Z,102399.27
2019-03-20T15:41:40.557Z,102401.20
2019-03-20T15:44:07.242Z,102401.29
2019-03-20T15:46:34.610Z,102404.45
2019-03-20T15:49:01.289Z,102396.52
2019-03-20T15:51:28.043Z,102396.14
2019-03-20T15:53:54.815Z,102393.34
2019-03-20T15:56:21.831Z,102401.75
2019-03-20T15:58:49.244Z,102406.64
2019-03-20T16:01:15.968Z,102399.48
2019-03-20T16:03:42.676Z,102398.90
2019-03-20T16:06:09.439Z,102405.01
2019-03-20T16:08:36.231Z,102402.96
2019-03-20T16:11:06.860Z,102414.91
2019-03-20T16:13:31.613Z,102411.65
2019-03-20T16:15:59.863Z,102404.88
2019-03-20T16:18:26.521Z,102400.08
2019-03-20T16:20:53.331Z,102397.81
2019-03-20T16:23:20.005Z,102402.20
2019-03-20T16:25:46.791Z,102401.80
2019-03-20T16:28:13.460Z,102397.28
2019-03-20T16:30:40.146Z,102405.55
2019-03-20T16:33:06.910Z,102398.49
2019-03-20T16:35:33.711Z,102406.52
2019-03-20T16:38:00.489Z,102402.38
2019-03-20T16:40:27.441Z,102412.69
2019-03-20T16:42:54.515Z,102414.54
2019-03-20T16:45:23.481Z,102416.09
2019-03-20T16:47:50.278Z,102415.08
2019-03-20T16:50:17.265Z,102428.49
2019-03-20T16:52:44.169Z,102429.30
2019-03-20T16:55:11.458Z,102431.75
2019-03-20T16:57:38.366Z,102429.53
2019-03-20T17:00:06.542Z,102426.11
2019-03-20T17:02:33.423Z,102429.14
2019-03-20T17:05:00.099Z,102434.80
2019-03-20T17:07:26.778Z,102435.33
2019-03-20T17:09:53.578Z,102427.22
2019-03-20T17:12:20.351Z,102426.93
2019-03-20T17:14:47.023Z,102408.16
2019-03-20T17:17:13.822Z,102419.41
2019-03-20T17:19:40.522Z,102425.65
2019-03-20T17:22:07.998Z,102426.93
2019-03-20T17:24:34.937Z,102424.50
2019-03-20T17:27:01.709Z,102424.95
2019-03-20T17:29:28.385Z,102429.30
2019-03-20T17:31:55.052Z,102427.00
2019-03-20T17:34:21.744Z,102422.52
2019-03-20T17:36:48.406Z,102428.05
2019-03-20T17:39:15.087Z,102427.30
2019-03-20T17:41:41.897Z,102427.08
2019-03-20T17:44:08.560Z,102426.79
2019-03-20T17:46:35.358Z,102426.04
2019-03-20T17:49:02.262Z,102424.48
2019-03-20T17:51:29.747Z,102428.55
2019-03-20T17:53:56.434Z,102433.55
2019-03-20T17:56:23.123Z,102430.04
2019-03-20T17:58:49.920Z,102433.34
2019-03-20T18:01:16.613Z,102439.61
2019-03-20T18:03:43.306Z,102434.60
2019-03-20T18:06:10.002Z,102436.66
2019-03-20T18:08:36.674Z,102429.88
2019-03-20T18:11:03.462Z,102435.91
2019-03-20T18:13:30.173Z,102440.41
2019-03-20T18:15:56.942Z,102446.97
2019-03-20T18:18:23.610Z,102444.39
2019-03-20T18:20:50.401Z,102452.49
2019-03-20T18:23:17.217Z,102456.25
2019-03-20T18:25:44.071Z,102459.80
2019-03-20T18:28:10.767Z,102466.52
2019-03-20T18:30:38.679Z,102467.02
2019-03-20T18:33:05.552Z,102464.81
2019-03-20T18:35:32.383Z,102469.38
2019-03-20T18:37:59.214Z,102473.64
2019-03-20T18:40:26.460Z,102476.69
2019-03-20T18:42:53.260Z,102477.27
2019-03-20T18:45:20.098Z,102481.61
2019-03-20T18:47:46.874Z,102481.61
2019-03-20T18:50:14.614Z,102478.97
2019-03-20T18:52:41.420Z,102479.10
2019-03-20T18:55:08.991Z,102473.08
2019-03-20T18:57:35.887Z,102474.77
2019-03-20T19:00:03.861Z,102473.27
2019-03-20T19:02:31.802Z,102478.47
2019-03-20T19:04:58.492Z,102482.20
2019-03-20T19:07:25.199Z,102482.95
2019-03-20T19:09:52.014Z,102475.84
2019-03-20T19:12:18.699Z,102480.15
2019-03-20T19:14:45.376Z,102481.10
2019-03-20T19:17:12.151Z,102476.09
2019-03-20T19:19:39.078Z,102476.39
2019-03-20T19:22:05.939Z,102478.66
2019-03-20T19:24:32.622Z,102475.27
2019-03-20T19:26:59.875Z,102472.02
2019-03-20T19:29:26.534Z,102473.51
2019-03-20T19:31:55.672Z,102476.02
2019-03-20T19:34:23.132Z,102482.66
2019-03-20T19:36:49.891Z,102486.91
2019-03-20T19:39:16.796Z,102497.90
2019-03-20T19:45:30.601Z,102498.64
2019-03-20T19:47:57.812Z,102501.15
2019-03-20T19:50:25.570Z,102496.14
2019-03-20T19:52:52.245Z,102497.09
2019-03-20T19:55:19.374Z,102503.48
2019-03-20T19:57:46.168Z,102506.74
2019-03-20T20:00:13.825Z,102507.92
2019-03-20T20:02:40.707Z,102501.52
2019-03-20T20:05:15.781Z,102512.42
2019-03-20T20:07:36.550Z,102505.79
2019-03-20T20:10:04.330Z,102513.44
2019-03-20T20:12:31.727Z,102513.91
2019-03-20T20:14:58.402Z,102510.59
2019-03-20T20:17:25.185Z,102512.72
2019-03-20T20:19:51.901Z,102518.24
2019-03-20T20:22:18.697Z,102511.09
2019-03-20T20:24:45.395Z,102512.48
2019-03-20T20:27:12.545Z,102521.80
2019-03-20T20:29:39.289Z,102517.44
2019-03-20T20:32:06.337Z,102523.98
2019-03-20T20:34:33.300Z,102519.05
2019-03-20T20:37:00.089Z,102516.55
2019-03-20T20:39:26.788Z,102511.40
2019-03-20T20:41:53.935Z,102511.98
2019-03-20T20:44:20.639Z,102512.19
2019-03-20T20:46:47.319Z,102513.98
2019-03-20T20:49:13.986Z,102512.56
2019-03-20T20:51:40.757Z,102518.55
2019-03-20T20:54:08.311Z,102520.24
2019-03-20T20:56:34.997Z,102521.13
2019-03-20T20:59:01.778Z,102522.21
2019-03-20T21:01:30.204Z,102528.48
2019-03-20T21:03:57.939Z,102525.16
2019-03-20T21:06:24.627Z,102534.69
2019-03-20T21:08:51.329Z,102536.89
2019-03-20T21:11:17.995Z,102533.14
2019-03-20T21:13:44.668Z,102537.72
2019-03-20T21:16:11.876Z,102535.58
2019-03-20T21:19:19.521Z,102531.00
2019-03-20T21:22:33.025Z,102527.98
2019-03-20T21:25:00.485Z,102532.78
2019-03-20T21:27:55.082Z,102532.61
2019-03-20T21:30:54.134Z,102536.37
2019-03-20T21:34:08.313Z,102538.30
2019-03-20T21:37:24.721Z,102536.84
2019-03-20T21:39:52.251Z,102539.41
2019-03-20T21:43:06.496Z,102543.16
2019-03-20T21:46:00.347Z,102546.39
2019-03-20T21:48:27.577Z,102542.26
2019-03-20T21:51:24.940Z,102541.01
2019-03-20T21:54:33.518Z,102541.84
2019-03-20T21:57:47.094Z,102535.99
2019-03-20T22:00:43.269Z,102539.99
2019-03-20T22:03:10.574Z,102549.27
2019-03-20T22:06:18.826Z,102552.22
2019-03-20T22:08:46.779Z,102546.63
2019-03-20T22:11:57.319Z,102546.19
2019-03-20T22:14:24.651Z,102547.34
2019-03-20T22:17:50.686Z,102543.45
2019-03-20T22:20:25.175Z,102544.91
2019-03-20T22:23:22.591Z,102542.10
2019-03-20T22:26:49.321Z,102539.84
2019-03-20T22:29:24.078Z,102541.90
2019-03-20T22:32:47.833Z,102541.59
2019-03-20T22:35:50.626Z,102546.77
2019-03-20T22:38:41.107Z,102553.75
2019-03-20T22:41:45.983Z,102561.44
2019-03-20T22:44:15.161Z,102558.39
2019-03-20T22:47:32.292Z,102557.75
2019-03-20T22:50:11.310Z,102554.12
2019-03-20T22:53:21.376Z,102558.93
2019-03-20T22:56:24.247Z,102558.93
2019-03-20T22:58:51.443Z,102564.25
2019-03-20T23:01:29.966Z,102568.14
2019-03-20T23:04:05.197Z,102571.53
2019-03-20T23:06:32.618Z,102569.97
2019-03-20T23:08:59.829Z,102568.52
2019-03-20T23:11:27.042Z,102568.30
2019-03-20T23:13:54.336Z,102562.75
2019-03-20T23:16:21.930Z,102565.80
2019-03-20T23:18:50.247Z,102564.55
2019-03-20T23:21:17.677Z,102560.92
2019-03-20T23:23:44.898Z,102559.16
2019-03-20T23:26:12.984Z,102559.30
2019-03-20T23:28:40.777Z,102566.44
2019-03-20T23:31:07.986Z,102564.68
2019-03-20T23:33:35.657Z,102564.61
2019-03-20T23:36:02.978Z,102564.41
2019-03-20T23:38:30.303Z,102568.16
2019-03-20T23:40:57.601Z,102574.94
2019-03-20T23:43:25.002Z,102569.92
2019-03-20T23:45:52.194Z,102567.42
2019-03-20T23:48:43.888Z,102568.97
2019-03-20T23:51:15.023Z,102568.22
2019-03-20T23:53:45.781Z,102564.33
2019-03-20T23:56:13.252Z,102563.42
2019-03-20T23:58:40.553Z,102559.08
